Terminal Aerodrome Forecast
Issued by NWS Wilmington, OH

Current Version | Previous Version | Graphics & Text | Print | Product List | Glossary On
Versions: 1 2 3 4 5 6 7 8 9 10 11 12 13 14 15
177
FTUS41 KILN 300541
TAFCMH
TAF
KCMH 300541Z 3006/3106 09007KT P6SM BKN090
     FM301100 11010KT P6SM VCSH BKN060
     FM301600 14012G18KT P6SM VCSH BKN070
     FM302300 16012KT P6SM VCSH BKN060
     FM310200 16011KT 5SM -TSRA BR OVC035CB=

USA.gov is the U.S. government's official web portal to all federal, state and local government web resources and services.